createdAt,value
2022-10-11T00:01:33.256Z,8.57
2022-10-11T00:04:35.965Z,8.56
2022-10-11T00:07:39.143Z,8.54
2022-10-11T00:10:41.804Z,8.50
2022-10-11T00:13:44.351Z,8.48
2022-10-11T00:16:46.916Z,8.44
2022-10-11T00:19:49.503Z,8.37
2022-10-11T00:22:52.105Z,8.34
2022-10-11T00:25:59.546Z,8.26
2022-10-11T00:29:02.133Z,8.24
2022-10-11T00:32:05.559Z,8.21
2022-10-11T00:35:08.840Z,8.20
2022-10-11T00:38:14.570Z,8.19
2022-10-11T00:41:17.348Z,8.14
2022-10-11T00:44:23.074Z,8.10
2022-10-11T00:47:25.673Z,8.09
2022-10-11T00:50:30.808Z,8.09
2022-10-11T00:53:34.210Z,8.08
2022-10-11T00:56:38.764Z,8.09
2022-10-11T00:59:45.089Z,8.10
2022-10-11T01:02:47.621Z,8.11
2022-10-11T01:05:50.177Z,8.10
2022-10-11T01:08:53.792Z,8.09
2022-10-11T01:12:00.227Z,8.08
2022-10-11T01:15:21.595Z,8.08
2022-10-11T01:18:49.608Z,8.06
2022-10-11T01:22:23.499Z,8.03
2022-10-11T01:25:32.953Z,7.97
2022-10-11T01:28:48.554Z,7.95
2022-10-11T01:32:15.490Z,7.92
2022-10-11T01:35:21.114Z,7.91
2022-10-11T01:38:31.179Z,7.89
2022-10-11T01:41:47.227Z,7.84
2022-10-11T01:44:51.033Z,7.81
2022-10-11T01:48:11.326Z,7.79
2022-10-11T01:51:14.273Z,7.77
2022-10-11T01:54:49.773Z,7.76
2022-10-11T01:58:12.652Z,7.76
2022-10-11T02:01:20.393Z,7.78
2022-10-11T02:04:55.081Z,7.74
2022-10-11T02:08:26.924Z,7.73
2022-10-11T02:11:31.694Z,7.75
2022-10-11T02:14:40.915Z,7.73
2022-10-11T02:17:57.185Z,7.73
2022-10-11T02:21:02.884Z,7.74
2022-10-11T02:24:32.229Z,7.75
2022-10-11T02:27:38.838Z,7.75
2022-10-11T02:30:42.508Z,7.74
2022-10-11T02:34:00.506Z,7.79
2022-10-11T02:37:36.109Z,7.78
2022-10-11T02:40:42.464Z,7.81
2022-10-11T02:43:57.714Z,7.83
2022-10-11T02:47:00.762Z,7.82
2022-10-11T02:50:03.792Z,7.83
2022-10-11T02:53:06.853Z,7.81
2022-10-11T02:56:09.521Z,7.83
2022-10-11T02:59:12.064Z,7.81
2022-10-11T03:02:14.723Z,7.80
2022-10-11T03:05:17.293Z,7.84
2022-10-11T03:08:20.084Z,7.85
2022-10-11T03:11:22.673Z,7.83
2022-10-11T03:14:25.297Z,7.84
2022-10-11T03:17:36.954Z,7.83
2022-10-11T03:20:42.740Z,7.86
2022-10-11T03:23:45.257Z,7.88
2022-10-11T03:26:47.991Z,7.85
2022-10-11T03:29:50.519Z,7.83
2022-10-11T03:32:55.956Z,7.83
2022-10-11T03:35:58.514Z,7.81
2022-10-11T03:39:01.145Z,7.81
2022-10-11T03:42:04.038Z,7.84
2022-10-11T03:45:08.471Z,7.83
2022-10-11T03:48:11.574Z,7.81
2022-10-11T03:51:15.219Z,7.80
2022-10-11T03:54:17.796Z,7.82
2022-10-11T03:57:20.628Z,7.80
2022-10-11T04:00:23.228Z,7.77
2022-10-11T04:03:26.268Z,7.79
2022-10-11T04:06:28.785Z,7.80
2022-10-11T04:09:31.472Z,7.74
2022-10-11T04:12:34.538Z,7.73
2022-10-11T04:15:38.460Z,7.73
2022-10-11T04:18:43.889Z,7.69
2022-10-11T04:21:46.457Z,7.68
2022-10-11T04:24:49.083Z,7.66
2022-10-11T04:27:51.637Z,7.67
2022-10-11T04:30:54.268Z,7.65
2022-10-11T04:33:57.372Z,7.66
2022-10-11T04:37:00.002Z,7.64
2022-10-11T04:40:02.812Z,7.65
2022-10-11T04:43:05.661Z,7.63
2022-10-11T04:46:09.044Z,7.62
2022-10-11T04:49:12.106Z,7.62
2022-10-11T04:52:14.696Z,7.60
2022-10-11T04:55:17.302Z,7.60
2022-10-11T04:58:20.056Z,7.58
2022-10-11T05:01:22.629Z,7.60
2022-10-11T05:04:25.262Z,7.62
2022-10-11T05:07:27.914Z,7.62
2022-10-11T05:10:31.824Z,7.65
2022-10-11T05:13:35.903Z,7.67
2022-10-11T05:16:38.663Z,7.72
2022-10-11T05:19:42.205Z,7.77
2022-10-11T05:22:47.795Z,7.82
2022-10-11T05:25:50.326Z,7.84
2022-10-11T05:28:56.015Z,7.89
2022-10-11T05:31:58.677Z,7.99
2022-10-11T05:35:04.560Z,8.02
2022-10-11T05:38:07.163Z,8.09
2022-10-11T05:41:12.099Z,8.14
2022-10-11T05:44:14.623Z,8.20
2022-10-11T05:47:17.209Z,8.27
2022-10-11T05:50:24.019Z,8.34
2022-10-11T05:53:27.109Z,8.40
2022-10-11T05:56:29.723Z,8.45
2022-10-11T05:59:32.256Z,8.56
2022-10-11T06:02:35.274Z,8.65
2022-10-11T06:05:38.031Z,8.73
2022-10-11T06:08:40.704Z,8.81
2022-10-11T06:11:46.401Z,8.93
2022-10-11T06:14:49.068Z,9.01
2022-10-11T06:17:54.925Z,9.13
2022-10-11T06:21:00.545Z,9.18
2022-10-11T06:24:03.273Z,9.27
2022-10-11T06:27:06.028Z,9.33
2022-10-11T06:30:09.525Z,9.39
2022-10-11T06:33:12.037Z,9.47
2022-10-11T06:36:15.574Z,9.55
2022-10-11T06:39:18.149Z,9.61
2022-10-11T06:42:20.794Z,9.71
2022-10-11T06:45:23.417Z,9.77
2022-10-11T06:48:26.241Z,9.90
2022-10-11T06:51:30.315Z,10.03
2022-10-11T06:54:33.045Z,10.21
2022-10-11T06:57:36.311Z,10.36
2022-10-11T07:00:39.695Z,10.52
2022-10-11T07:03:43.242Z,10.73
2022-10-11T07:06:45.899Z,10.92
2022-10-11T07:09:48.409Z,11.12
2022-10-11T07:12:51.004Z,11.29
2022-10-11T07:15:53.966Z,11.27
2022-10-11T07:19:00.780Z,11.60
2022-10-11T07:22:03.702Z,11.76
2022-10-11T07:25:07.042Z,11.86
2022-10-11T07:28:10.198Z,11.93
2022-10-11T07:31:17.127Z,12.09
2022-10-11T07:34:20.944Z,12.28
2022-10-11T07:37:23.581Z,12.41
2022-10-11T07:40:33.876Z,12.37
2022-10-11T07:43:37.649Z,12.49
2022-10-11T07:46:40.539Z,12.70
2022-10-11T07:49:43.364Z,12.90
2022-10-11T07:52:45.888Z,13.14
2022-10-11T07:55:48.488Z,13.29
2022-10-11T07:58:52.971Z,13.54
2022-10-11T08:01:55.636Z,13.82
2022-10-11T08:04:58.251Z,13.78
2022-10-11T08:08:00.883Z,14.08
2022-10-11T08:11:04.018Z,14.38
2022-10-11T08:14:09.136Z,14.52
2022-10-11T08:17:12.281Z,14.80
2022-10-11T08:20:14.917Z,14.93
2022-10-11T08:23:18.701Z,15.29
2022-10-11T08:26:21.570Z,15.29
2022-10-11T08:29:24.494Z,15.18
2022-10-11T08:32:27.043Z,15.23
2022-10-11T08:35:29.726Z,15.12
2022-10-11T08:38:32.900Z,15.24
2022-10-11T08:41:48.612Z,15.23
2022-10-11T08:45:10.526Z,15.03
2022-10-11T08:48:47.406Z,14.99
2022-10-11T08:52:00.303Z,15.18
2022-10-11T08:55:12.422Z,15.12
2022-10-11T08:58:22.691Z,15.03
2022-10-11T09:01:32.165Z,15.00
2022-10-11T09:04:37.877Z,15.03
2022-10-11T09:07:57.799Z,15.08
2022-10-11T09:11:21.844Z,15.02
2022-10-11T09:14:27.704Z,14.90
2022-10-11T09:17:52.183Z,14.95
2022-10-11T09:21:00.849Z,15.06
2022-10-11T09:24:13.051Z,15.28
2022-10-11T09:27:37.838Z,15.47
2022-10-11T09:30:51.397Z,15.70
2022-10-11T09:33:54.146Z,15.88
2022-10-11T09:37:04.923Z,15.97
2022-10-11T09:40:31.409Z,16.14
2022-10-11T09:43:34.473Z,16.40
2022-10-11T09:46:40.937Z,16.53
2022-10-11T09:50:01.718Z,17.59
2022-10-11T09:53:05.527Z,18.20
2022-10-11T09:56:08.736Z,18.81
2022-10-11T09:59:32.477Z,19.16
2022-10-11T10:02:47.170Z,19.24
2022-10-11T10:06:05.368Z,18.64
2022-10-11T10:09:20.377Z,18.58
2022-10-11T10:12:26.613Z,18.82
2022-10-11T10:15:39.851Z,19.32
2022-10-11T10:18:47.878Z,20.08
2022-10-11T10:21:52.948Z,20.68
2022-10-11T10:25:00.956Z,20.91
2022-10-11T10:28:19.719Z,21.68
2022-10-11T10:31:25.073Z,21.73
2022-10-11T10:34:32.291Z,22.11
2022-10-11T10:38:10.656Z,22.25
2022-10-11T10:41:14.417Z,22.24
2022-10-11T10:44:17.073Z,22.75
2022-10-11T10:47:34.435Z,22.91
2022-10-11T10:50:58.325Z,23.12
2022-10-11T10:54:11.107Z,23.49
2022-10-11T10:57:21.237Z,24.02
2022-10-11T11:00:24.835Z,24.36
2022-10-11T11:03:59.963Z,23.64
2022-10-11T11:07:11.810Z,23.29
2022-10-11T11:10:22.232Z,23.71
2022-10-11T11:13:44.850Z,23.74
2022-10-11T11:17:18.667Z,23.58
2022-10-11T11:20:32.425Z,23.67
2022-10-11T11:23:42.773Z,24.02
2022-10-11T11:27:04.519Z,23.41
2022-10-11T11:30:12.557Z,24.16
2022-10-11T11:33:40.196Z,23.57
2022-10-11T11:36:50.330Z,24.29
2022-10-11T11:39:58.175Z,23.97
2022-10-11T11:43:26.673Z,24.27
2022-10-11T11:46:38.853Z,24.44
2022-10-11T11:49:58.552Z,24.28
2022-10-11T11:53:05.277Z,24.80
2022-10-11T11:56:14.801Z,24.86
2022-10-11T11:59:47.889Z,25.15
2022-10-11T12:02:57.431Z,25.36
2022-10-11T12:06:12.284Z,25.09
2022-10-11T12:09:18.045Z,25.01
2022-10-11T12:12:37.316Z,25.05
2022-10-11T12:15:40.282Z,25.44
2022-10-11T12:18:52.224Z,25.99
2022-10-11T12:22:17.233Z,25.98
2022-10-11T12:25:22.864Z,25.68
2022-10-11T12:28:42.237Z,25.70
2022-10-11T12:31:58.993Z,25.69
2022-10-11T12:35:33.673Z,25.89
2022-10-11T12:38:38.663Z,26.18
2022-10-11T12:42:08.671Z,26.73
2022-10-11T12:45:11.224Z,26.79
2022-10-11T12:48:30.196Z,26.82
2022-10-11T12:52:01.439Z,25.52
2022-10-11T12:55:23.728Z,26.09
2022-10-11T12:58:29.190Z,25.08
2022-10-11T13:01:48.740Z,25.78
2022-10-11T13:04:51.794Z,26.53
2022-10-11T13:07:58.310Z,25.99
2022-10-11T13:11:11.006Z,26.50
2022-10-11T13:14:23.378Z,26.31
2022-10-11T13:17:37.271Z,26.81
2022-10-11T13:20:42.530Z,25.97
2022-10-11T13:23:45.330Z,26.06
2022-10-11T13:26:51.141Z,26.23
2022-10-11T13:29:56.693Z,26.79
2022-10-11T13:33:01.850Z,27.03
2022-10-11T13:36:11.070Z,26.57
2022-10-11T13:39:31.119Z,26.88
2022-10-11T13:42:34.369Z,27.09
2022-10-11T13:45:39.254Z,26.42
2022-10-11T13:48:41.913Z,26.15
2022-10-11T13:51:44.974Z,27.01
2022-10-11T13:54:55.357Z,26.87
2022-10-11T13:58:00.336Z,26.72
2022-10-11T14:01:06.479Z,26.54
2022-10-11T14:04:15.681Z,26.48
2022-10-11T14:07:26.268Z,26.72
2022-10-11T14:10:29.764Z,26.34
2022-10-11T14:13:47.161Z,26.89
2022-10-11T14:17:22.881Z,26.50
2022-10-11T14:20:35.176Z,26.78
2022-10-11T14:23:38.246Z,26.54
2022-10-11T14:27:04.177Z,26.56
2022-10-11T14:30:25.163Z,25.96
2022-10-11T14:33:28.933Z,26.70
2022-10-11T14:36:31.873Z,26.51
2022-10-11T14:39:34.571Z,26.47
2022-10-11T14:42:37.919Z,26.52
2022-10-11T14:45:40.550Z,25.52
2022-10-11T14:48:55.019Z,25.62
2022-10-11T14:51:59.240Z,25.35
2022-10-11T14:55:02.360Z,25.57
2022-10-11T14:58:05.986Z,25.85
2022-10-11T15:01:15.495Z,25.60
2022-10-11T15:04:19.031Z,24.83
2022-10-11T15:07:21.646Z,25.38
2022-10-11T15:10:26.746Z,24.94
2022-10-11T15:13:29.530Z,24.86
2022-10-11T15:16:33.042Z,24.24
2022-10-11T15:19:35.809Z,24.05
2022-10-11T15:22:38.289Z,23.02
2022-10-11T15:25:41.517Z,22.90
2022-10-11T15:28:44.284Z,23.02
2022-10-11T15:31:47.038Z,22.54
2022-10-11T15:34:49.613Z,22.05
2022-10-11T15:37:55.121Z,21.63
2022-10-11T15:40:59.553Z,20.86
2022-10-11T15:44:02.211Z,20.33
2022-10-11T15:47:05.384Z,19.75
2022-10-11T15:50:34.348Z,19.32
2022-10-11T15:53:37.120Z,18.92
2022-10-11T15:56:40.073Z,18.53
2022-10-11T15:59:56.048Z,18.15
2022-10-11T16:03:04.199Z,17.87
2022-10-11T16:06:07.566Z,17.46
2022-10-11T16:09:14.708Z,17.15
2022-10-11T16:12:20.698Z,16.92
2022-10-11T16:15:24.725Z,16.59
2022-10-11T16:18:35.098Z,16.30
2022-10-11T16:21:38.507Z,16.04
2022-10-11T16:24:41.170Z,15.78
2022-10-11T16:27:47.248Z,15.58
2022-10-11T16:30:51.044Z,15.41
2022-10-11T16:33:55.555Z,15.16
2022-10-11T16:37:01.374Z,14.93
2022-10-11T16:40:09.598Z,14.71
2022-10-11T16:43:12.243Z,14.56
2022-10-11T16:46:14.868Z,14.35
2022-10-11T16:49:23.445Z,14.23
2022-10-11T16:52:27.063Z,14.04
2022-10-11T16:55:30.074Z,13.88
2022-10-11T16:58:33.018Z,13.73
2022-10-11T17:01:35.729Z,13.62
2022-10-11T17:04:38.489Z,13.51
2022-10-11T17:07:41.104Z,13.32
2022-10-11T17:10:47.544Z,13.19
2022-10-11T17:14:05.889Z,13.05
2022-10-11T17:17:44.332Z,12.92
2022-10-11T17:21:14.587Z,12.78
2022-10-11T17:24:19.791Z,12.63
2022-10-11T17:27:25.738Z,12.49
2022-10-11T17:30:32.945Z,12.38
2022-10-11T17:37:31.190Z,12.11
2022-10-11T17:40:51.789Z,12.06
2022-10-11T17:44:19.937Z,11.94
2022-10-11T17:47:35.008Z,11.84
2022-10-11T17:50:54.177Z,11.70
2022-10-11T17:54:06.663Z,11.61
2022-10-11T17:57:15.144Z,11.52
2022-10-11T18:00:20.383Z,11.46
2022-10-11T18:03:28.673Z,11.35
2022-10-11T18:06:38.387Z,11.27
2022-10-11T18:09:50.166Z,11.20
2022-10-11T18:13:07.475Z,11.15
2022-10-11T18:16:14.425Z,11.06
2022-10-11T18:19:18.501Z,10.98
2022-10-11T18:22:21.609Z,10.91
2022-10-11T18:25:24.376Z,10.81
2022-10-11T18:28:27.291Z,10.73
2022-10-11T18:31:31.298Z,10.66
2022-10-11T18:34:35.377Z,10.63
2022-10-11T18:37:38.467Z,10.53
2022-10-11T18:40:50.956Z,10.45
2022-10-11T18:44:01.792Z,10.38
2022-10-11T18:47:04.621Z,10.31
2022-10-11T18:50:08.049Z,10.26
2022-10-11T18:53:12.804Z,10.20
2022-10-11T18:56:17.328Z,10.11
2022-10-11T18:59:20.726Z,10.08
2022-10-11T19:02:23.432Z,10.01
2022-10-11T19:05:29.180Z,9.90
2022-10-11T19:08:32.644Z,9.86
2022-10-11T19:11:35.460Z,9.79
2022-10-11T19:14:38.537Z,9.71
2022-10-11T19:17:44.502Z,9.60
2022-10-11T19:20:50.709Z,9.52
2022-10-11T19:23:55.514Z,9.54
2022-10-11T19:27:02.523Z,9.46
2022-10-11T19:30:06.468Z,9.42
2022-10-11T19:33:11.655Z,9.37
2022-10-11T19:36:14.694Z,9.32
2022-10-11T19:39:20.821Z,9.27
2022-10-11T19:42:23.480Z,9.27
2022-10-11T19:45:26.305Z,9.22
2022-10-11T19:48:29.984Z,9.15
2022-10-11T19:51:35.419Z,9.12
2022-10-11T19:54:39.255Z,9.04
2022-10-11T19:57:42.324Z,8.98
2022-10-11T20:00:45.220Z,8.96
2022-10-11T20:03:52.787Z,8.89
2022-10-11T20:06:55.502Z,8.87
2022-10-11T20:09:58.228Z,8.85
2022-10-11T20:13:00.838Z,8.77
2022-10-11T20:16:11.626Z,8.73
2022-10-11T20:19:14.404Z,8.65
2022-10-11T20:22:17.051Z,8.61
2022-10-11T20:25:25.161Z,8.57
2022-10-11T20:28:29.226Z,8.54
2022-10-11T20:31:33.497Z,8.47
2022-10-11T20:34:39.610Z,8.50
2022-10-11T20:37:45.407Z,8.49
2022-10-11T20:40:48.032Z,8.48
2022-10-11T20:43:55.654Z,8.50
2022-10-11T20:47:03.022Z,8.52
2022-10-11T20:50:07.078Z,8.55
2022-10-11T20:53:16.162Z,8.58
2022-10-11T20:56:20.785Z,8.57
2022-10-11T20:59:23.558Z,8.60
2022-10-11T21:02:26.167Z,8.64
2022-10-11T21:05:29.122Z,8.63
2022-10-11T21:08:34.995Z,8.57
2022-10-11T21:11:37.831Z,8.59
2022-10-11T21:14:40.855Z,8.62
2022-10-11T21:17:43.427Z,8.57
2022-10-11T21:20:46.331Z,8.61
2022-10-11T21:23:48.922Z,8.60
2022-10-11T21:26:51.574Z,8.58
2022-10-11T21:29:54.116Z,8.57
2022-10-11T21:32:57.690Z,8.56
2022-10-11T21:36:04.349Z,8.57
2022-10-11T21:39:07.137Z,8.58
2022-10-11T21:42:10.687Z,8.55
2022-10-11T21:45:13.449Z,8.59
2022-10-11T21:48:16.275Z,8.53
2022-10-11T21:51:30.626Z,8.52
2022-10-11T21:54:33.213Z,8.52
2022-10-11T21:57:35.895Z,8.50
2022-10-11T22:00:38.499Z,8.48
2022-10-11T22:03:41.071Z,8.54
2022-10-11T22:06:43.747Z,8.59
2022-10-11T22:09:46.367Z,8.56
2022-10-11T22:12:48.988Z,8.46
2022-10-11T22:15:51.826Z,8.48
2022-10-11T22:18:54.664Z,8.47
2022-10-11T22:21:57.271Z,8.60
2022-10-11T22:24:59.849Z,8.67
2022-10-11T22:28:02.610Z,8.68
2022-10-11T22:31:05.797Z,8.68
2022-10-11T22:34:08.425Z,8.72
2022-10-11T22:37:11.129Z,8.74
2022-10-11T22:40:13.725Z,8.76
2022-10-11T22:43:16.625Z,8.76
2022-10-11T22:46:19.260Z,8.77
2022-10-11T22:49:22.029Z,8.77
2022-10-11T22:52:24.677Z,8.74
2022-10-11T22:55:27.283Z,8.76
2022-10-11T22:58:29.921Z,8.79
2022-10-11T23:01:32.674Z,8.78
2022-10-11T23:04:35.254Z,8.80
2022-10-11T23:07:40.906Z,8.82
2022-10-11T23:10:43.554Z,8.84
2022-10-11T23:13:46.319Z,8.83
2022-10-11T23:16:52.602Z,8.89
2022-10-11T23:19:55.490Z,8.90
2022-10-11T23:22:58.123Z,8.84
2022-10-11T23:26:11.561Z,8.87
2022-10-11T23:29:14.148Z,8.86
2022-10-11T23:32:16.891Z,8.88
2022-10-11T23:35:19.509Z,8.86
2022-10-11T23:38:22.288Z,8.87
2022-10-11T23:41:26.908Z,8.89
2022-10-11T23:44:32.568Z,8.89
2022-10-11T23:47:35.530Z,8.86
2022-10-11T23:50:38.393Z,8.91
2022-10-11T23:53:40.997Z,8.80
2022-10-11T23:56:46.604Z,8.84
2022-10-11T23:59:49.270Z,8.88
